createdAt,value
2018-12-10T00:02:17.448Z,25.87
2018-12-10T00:04:46.483Z,25.30
2018-12-10T00:07:15.222Z,24.17
2018-12-10T00:09:43.972Z,25.33
2018-12-10T00:12:12.748Z,27.40
2018-12-10T00:14:41.499Z,27.90
2018-12-10T00:17:10.344Z,25.27
2018-12-10T00:19:39.100Z,26.73
2018-12-10T00:22:07.784Z,26.10
2018-12-10T00:24:36.503Z,27.03
2018-12-10T00:27:05.737Z,26.30
2018-12-10T00:29:34.532Z,27.43
2018-12-10T00:32:03.567Z,27.93
2018-12-10T00:34:32.279Z,28.70
2018-12-10T00:37:00.985Z,26.23
2018-12-10T00:39:29.993Z,27.83
2018-12-10T00:41:58.745Z,25.83
2018-12-10T00:44:27.593Z,24.60
2018-12-10T00:46:56.324Z,25.43
2018-12-10T00:49:25.093Z,24.57
2018-12-10T00:51:53.841Z,26.43
2018-12-10T00:54:22.649Z,25.87
2018-12-10T00:56:51.446Z,26.40
2018-12-10T00:59:20.276Z,25.30
2018-12-10T01:01:49.165Z,23.57
2018-12-10T01:04:17.899Z,24.13
2018-12-10T01:06:46.631Z,24.93
2018-12-10T01:09:15.374Z,25.00
2018-12-10T01:11:44.182Z,23.80
2018-12-10T01:14:12.953Z,24.00
2018-12-10T01:16:41.675Z,25.03
2018-12-10T01:19:10.820Z,25.27
2018-12-10T01:21:39.502Z,24.77
2018-12-10T01:24:08.248Z,26.37
2018-12-10T01:26:36.966Z,26.43
2018-12-10T01:29:05.736Z,28.73
2018-12-10T01:31:34.497Z,28.10
2018-12-10T01:34:03.180Z,27.23
2018-12-10T01:36:31.919Z,29.50
2018-12-10T01:39:00.652Z,27.37
2018-12-10T01:41:29.373Z,28.10
2018-12-10T01:43:58.118Z,29.43
2018-12-10T01:46:26.830Z,28.67
2018-12-10T01:48:55.539Z,26.03
2018-12-10T01:51:24.301Z,27.07
2018-12-10T01:53:53.055Z,26.50
2018-12-10T01:56:21.796Z,25.40
2018-12-10T01:58:50.528Z,27.57
2018-12-10T02:01:19.291Z,25.30
2018-12-10T02:03:48.062Z,26.53
2018-12-10T02:06:16.794Z,24.53
2018-12-10T02:08:45.525Z,24.37
2018-12-10T02:11:14.267Z,25.80
2018-12-10T02:13:42.999Z,26.37
2018-12-10T02:16:12.478Z,26.13
2018-12-10T02:18:41.209Z,25.27
2018-12-10T02:21:09.976Z,24.17
2018-12-10T02:23:38.708Z,24.97
2018-12-10T02:26:07.746Z,27.10
2018-12-10T02:28:41.685Z,24.63
2018-12-10T02:31:10.465Z,24.63
2018-12-10T02:33:39.205Z,24.07
2018-12-10T02:36:07.910Z,22.33
2018-12-10T02:38:36.583Z,23.53
2018-12-10T02:41:05.336Z,24.77
2018-12-10T02:43:34.069Z,24.63
2018-12-10T02:46:02.759Z,25.13
2018-12-10T02:48:31.498Z,24.83
2018-12-10T02:51:00.292Z,25.87
2018-12-10T02:53:29.266Z,24.67
2018-12-10T02:55:57.969Z,25.30
2018-12-10T02:58:26.758Z,25.70
2018-12-10T03:00:55.439Z,25.57
2018-12-10T03:03:24.109Z,25.03
2018-12-10T03:05:52.849Z,26.13
2018-12-10T03:08:21.558Z,26.70
2018-12-10T03:10:50.316Z,25.40
2018-12-10T03:13:19.000Z,25.07
2018-12-10T03:15:47.769Z,23.40
2018-12-10T03:18:16.525Z,24.33
2018-12-10T03:20:45.294Z,25.80
2018-12-10T03:23:14.013Z,26.73
2018-12-10T03:25:42.801Z,25.80
2018-12-10T03:28:11.652Z,26.03
2018-12-10T03:30:40.462Z,26.63
2018-12-10T03:33:09.395Z,28.50
2018-12-10T03:35:38.195Z,29.90
2018-12-10T03:38:06.956Z,28.77
2018-12-10T03:40:36.498Z,27.87
2018-12-10T03:43:05.257Z,27.53
2018-12-10T03:45:33.979Z,28.03
2018-12-10T03:48:02.757Z,28.33
2018-12-10T03:50:31.484Z,27.97
2018-12-10T03:53:00.179Z,28.60
2018-12-10T03:55:28.922Z,28.30
2018-12-10T03:57:57.643Z,29.27
2018-12-10T04:00:26.404Z,31.43
2018-12-10T04:02:55.139Z,29.13
2018-12-10T04:05:23.914Z,29.73
2018-12-10T04:07:52.648Z,28.67
2018-12-10T04:10:21.407Z,29.67
2018-12-10T04:12:50.157Z,31.27
2018-12-10T04:15:18.939Z,29.73
2018-12-10T04:17:47.655Z,30.27
2018-12-10T04:20:16.363Z,32.70
2018-12-10T04:22:45.081Z,31.30
2018-12-10T04:25:14.290Z,33.53
2018-12-10T04:27:43.038Z,30.43
2018-12-10T04:30:12.004Z,31.00
2018-12-10T04:32:40.762Z,31.30
2018-12-10T04:35:09.481Z,29.60
2018-12-10T04:37:38.233Z,29.13
2018-12-10T04:40:07.000Z,28.30
2018-12-10T04:42:36.025Z,27.70
2018-12-10T04:45:06.084Z,29.33
2018-12-10T04:47:35.113Z,29.17
2018-12-10T04:50:04.766Z,24.60
2018-12-10T04:52:33.548Z,28.47
2018-12-10T04:55:02.252Z,27.93
2018-12-10T04:57:31.025Z,25.53
2018-12-10T04:59:59.836Z,25.03
2018-12-10T05:02:28.646Z,24.97
2018-12-10T05:04:57.452Z,25.87
2018-12-10T05:07:26.204Z,26.60
2018-12-10T05:09:54.897Z,27.10
2018-12-10T05:12:23.664Z,27.03
2018-12-10T05:14:52.425Z,28.93
2018-12-10T05:17:21.166Z,29.70
2018-12-10T05:19:49.909Z,31.60
2018-12-10T05:22:18.711Z,29.90
2018-12-10T05:24:47.523Z,31.10
2018-12-10T05:27:16.262Z,31.37
2018-12-10T05:29:45.082Z,31.23
2018-12-10T05:32:13.845Z,31.37
2018-12-10T05:34:42.630Z,29.87
2018-12-10T05:37:11.340Z,30.63
2018-12-10T05:39:40.104Z,31.83
2018-12-10T05:42:08.875Z,31.50
2018-12-10T05:44:37.630Z,29.27
2018-12-10T05:47:06.390Z,31.77
2018-12-10T05:49:35.127Z,30.50
2018-12-10T05:52:03.970Z,32.63
2018-12-10T05:54:32.672Z,32.87
2018-12-10T05:57:01.468Z,35.03
2018-12-10T05:59:30.261Z,36.23
2018-12-10T06:01:59.043Z,35.37
2018-12-10T06:04:27.733Z,33.50
2018-12-10T06:06:56.416Z,29.80
2018-12-10T06:09:25.163Z,30.80
2018-12-10T06:11:53.987Z,32.27
2018-12-10T06:14:22.701Z,32.17
2018-12-10T06:16:51.394Z,31.77
2018-12-10T06:19:20.159Z,31.33
2018-12-10T06:21:48.934Z,31.07
2018-12-10T06:24:17.712Z,38.20
2018-12-10T06:26:46.450Z,34.00
2018-12-10T06:29:15.280Z,34.70
2018-12-10T06:31:44.012Z,37.57
2018-12-10T06:34:12.756Z,35.93
2018-12-10T06:36:41.489Z,34.40
2018-12-10T06:39:10.236Z,35.23
2018-12-10T06:41:38.997Z,36.87
2018-12-10T06:44:07.802Z,36.30
2018-12-10T06:46:36.527Z,36.80
2018-12-10T06:49:05.246Z,36.43
2018-12-10T06:51:34.028Z,37.00
2018-12-10T06:54:02.885Z,38.87
2018-12-10T06:56:31.652Z,35.43
2018-12-10T06:59:00.388Z,34.33
2018-12-10T07:01:29.093Z,33.30
2018-12-10T07:03:57.897Z,35.20
2018-12-10T07:06:26.643Z,33.30
2018-12-10T07:08:55.374Z,26.97
2018-12-10T07:11:24.069Z,27.47
2018-12-10T07:13:52.918Z,28.07
2018-12-10T07:16:21.704Z,26.37
2018-12-10T07:18:50.519Z,28.87
2018-12-10T07:21:19.293Z,24.93
2018-12-10T07:23:47.997Z,26.40
2018-12-10T07:26:16.763Z,27.20
2018-12-10T07:28:45.435Z,26.57
2018-12-10T07:31:14.157Z,27.23
2018-12-10T07:33:42.888Z,29.17
2018-12-10T07:36:11.672Z,29.70
2018-12-10T07:38:40.418Z,28.23
2018-12-10T07:41:09.233Z,30.33
2018-12-10T07:43:37.986Z,30.17
2018-12-10T07:46:06.776Z,33.07
2018-12-10T07:48:35.720Z,32.27
2018-12-10T07:51:04.955Z,30.67
2018-12-10T07:53:33.689Z,29.50
2018-12-10T07:56:02.491Z,30.13
2018-12-10T07:58:31.213Z,28.20
2018-12-10T08:00:59.946Z,27.80
2018-12-10T08:03:28.676Z,28.63
2018-12-10T08:05:57.446Z,25.87
2018-12-10T08:08:26.148Z,26.83
2018-12-10T08:10:54.936Z,24.63
2018-12-10T08:13:23.829Z,23.73
2018-12-10T08:15:52.538Z,22.77
2018-12-10T08:18:21.293Z,20.20
2018-12-10T08:20:50.172Z,18.17
2018-12-10T08:23:19.020Z,15.50
2018-12-10T08:25:47.865Z,18.27
2018-12-10T08:28:16.660Z,16.27
2018-12-10T08:30:45.754Z,15.57
2018-12-10T08:33:14.585Z,15.73
2018-12-10T08:35:43.415Z,14.57
2018-12-10T08:38:12.460Z,15.00
2018-12-10T08:40:41.337Z,15.63
2018-12-10T08:43:10.050Z,14.67
2018-12-10T08:45:38.795Z,15.87
2018-12-10T08:48:07.513Z,14.67
2018-12-10T08:50:36.313Z,16.40
2018-12-10T08:53:05.020Z,14.70
2018-12-10T08:55:33.920Z,15.23
2018-12-10T08:58:03.509Z,17.00
2018-12-10T09:00:32.246Z,17.13
2018-12-10T09:03:01.097Z,16.73
2018-12-10T09:05:29.833Z,16.93
2018-12-10T09:07:58.617Z,16.40
2018-12-10T09:10:27.407Z,16.33
2018-12-10T09:12:56.195Z,15.43
2018-12-10T09:15:24.983Z,16.00
2018-12-10T09:17:53.729Z,14.63
2018-12-10T09:20:22.559Z,16.23
2018-12-10T09:22:51.325Z,16.50
2018-12-10T09:25:24.497Z,16.50
2018-12-10T09:27:50.948Z,16.60
2018-12-10T09:30:19.704Z,16.43
2018-12-10T09:32:48.490Z,18.17
2018-12-10T09:35:17.204Z,15.80
2018-12-10T09:37:45.998Z,16.03
2018-12-10T09:40:14.781Z,13.73
2018-12-10T09:42:43.578Z,15.17
2018-12-10T09:45:12.591Z,12.63
2018-12-10T09:47:41.391Z,13.03
2018-12-10T09:50:10.561Z,12.53
2018-12-10T09:52:39.335Z,11.67
2018-12-10T09:55:08.071Z,10.63
2018-12-10T09:57:36.860Z,11.17
2018-12-10T10:00:13.894Z,10.77
2018-12-10T10:02:42.685Z,11.33
2018-12-10T10:05:11.855Z,10.50
2018-12-10T10:07:40.607Z,11.50
2018-12-10T10:10:09.439Z,10.87
2018-12-10T10:12:38.227Z,11.57
2018-12-10T10:15:07.485Z,13.03
2018-12-10T10:17:36.363Z,12.87
2018-12-10T10:20:05.667Z,12.57
2018-12-10T10:22:34.455Z,12.73
2018-12-10T10:25:03.165Z,11.80
2018-12-10T10:27:31.934Z,10.27
2018-12-10T10:30:00.629Z,11.53
2018-12-10T10:32:29.327Z,11.53
2018-12-10T10:34:58.090Z,11.33
2018-12-10T10:37:26.827Z,11.33
2018-12-10T10:39:55.980Z,11.97
2018-12-10T10:42:24.763Z,12.13
2018-12-10T10:44:53.579Z,13.13
2018-12-10T10:47:22.397Z,12.40
2018-12-10T10:49:51.571Z,11.27
2018-12-10T10:52:20.348Z,11.27
2018-12-10T10:54:49.412Z,10.80
2018-12-10T10:57:18.141Z,10.37
2018-12-10T10:59:46.901Z,11.20
2018-12-10T11:02:22.545Z,11.23
2018-12-10T11:04:51.682Z,11.70
2018-12-10T11:07:20.533Z,12.60
2018-12-10T11:09:49.344Z,11.23
2018-12-10T11:12:18.039Z,10.73
2018-12-10T11:14:46.737Z,11.27
2018-12-10T11:17:15.448Z,11.33
2018-12-10T11:19:44.289Z,11.10
2018-12-10T11:22:12.970Z,11.80
2018-12-10T11:24:41.730Z,11.27
2018-12-10T11:27:10.448Z,10.80
2018-12-10T11:29:39.189Z,11.13
2018-12-10T11:32:07.921Z,11.60
2018-12-10T11:34:36.727Z,10.93
2018-12-10T11:37:05.556Z,9.87
2018-12-10T11:39:34.423Z,10.63
2018-12-10T11:42:03.198Z,12.13
2018-12-10T11:44:38.368Z,11.70
2018-12-10T11:47:13.011Z,10.90
2018-12-10T11:49:37.957Z,12.17
2018-12-10T11:52:07.785Z,11.40
2018-12-10T11:54:36.866Z,11.67
2018-12-10T11:57:06.144Z,11.07
2018-12-10T11:59:34.893Z,11.60
2018-12-10T12:02:04.139Z,11.67
2018-12-10T12:04:32.912Z,12.13
2018-12-10T12:07:01.624Z,11.77
2018-12-10T12:09:30.394Z,11.20
2018-12-10T12:11:59.203Z,11.00
2018-12-10T12:14:28.506Z,9.93
2018-12-10T12:16:57.292Z,11.33
2018-12-10T12:19:26.040Z,11.60
2018-12-10T12:21:54.774Z,12.47
2018-12-10T12:24:23.519Z,12.87
2018-12-10T12:26:52.261Z,13.50
2018-12-10T12:29:21.093Z,13.47
2018-12-10T12:31:49.911Z,14.73
2018-12-10T12:34:18.642Z,13.33
2018-12-10T12:36:47.399Z,14.33
2018-12-10T12:39:16.114Z,13.23
2018-12-10T12:41:44.969Z,13.87
2018-12-10T12:44:13.720Z,13.03
2018-12-10T12:46:43.061Z,15.10
2018-12-10T12:49:11.844Z,13.73
2018-12-10T12:51:40.617Z,12.70
2018-12-10T12:54:09.370Z,12.90
2018-12-10T12:56:38.101Z,12.53
2018-12-10T12:59:06.901Z,11.97
2018-12-10T13:01:35.619Z,12.43
2018-12-10T13:04:04.753Z,13.60
2018-12-10T13:06:33.530Z,15.20
2018-12-10T13:09:02.472Z,14.03
2018-12-10T13:11:31.413Z,15.70
2018-12-10T13:14:00.129Z,15.27
2018-12-10T13:16:35.587Z,16.00
2018-12-10T13:19:04.313Z,15.63
2018-12-10T13:21:33.052Z,15.03
2018-12-10T13:24:02.197Z,15.70
2018-12-10T13:26:31.246Z,16.60
2018-12-10T13:29:00.091Z,16.13
2018-12-10T13:31:29.055Z,16.57
2018-12-10T13:33:57.834Z,16.03
2018-12-10T13:36:26.569Z,16.07
2018-12-10T13:38:55.316Z,16.60
2018-12-10T13:41:24.128Z,16.13
2018-12-10T13:43:53.045Z,16.23
2018-12-10T13:46:21.779Z,15.50
2018-12-10T13:48:50.529Z,16.43
2018-12-10T13:51:19.242Z,15.43
2018-12-10T13:53:47.971Z,15.30
2018-12-10T13:56:17.121Z,16.10
2018-12-10T13:58:45.915Z,14.33
2018-12-10T14:01:14.673Z,15.60
2018-12-10T14:03:43.769Z,16.10
2018-12-10T14:06:12.509Z,16.87
2018-12-10T14:08:41.546Z,18.43
2018-12-10T14:11:10.335Z,16.30
2018-12-10T14:13:39.052Z,15.97
2018-12-10T14:16:07.779Z,16.63
2018-12-10T14:18:36.519Z,16.07
2018-12-10T14:21:07.311Z,16.07
2018-12-10T14:23:36.560Z,17.47
2018-12-10T14:26:05.820Z,18.50
2018-12-10T14:28:34.632Z,18.23
2018-12-10T14:31:04.443Z,18.33
2018-12-10T14:33:33.709Z,18.37
2018-12-10T14:36:02.417Z,18.23
2018-12-10T14:38:31.165Z,17.93
2018-12-10T14:40:59.883Z,19.60
2018-12-10T14:43:28.665Z,18.67
2018-12-10T14:45:57.444Z,19.90
2018-12-10T14:48:26.205Z,19.57
2018-12-10T14:50:55.397Z,17.57
2018-12-10T14:53:24.210Z,18.97
2018-12-10T14:55:52.953Z,17.27
2018-12-10T14:58:21.738Z,15.70
2018-12-10T15:00:50.522Z,15.27
2018-12-10T15:03:19.303Z,13.83
2018-12-10T15:05:48.052Z,14.20
2018-12-10T15:08:16.861Z,14.93
2018-12-10T15:10:45.637Z,14.03
2018-12-10T15:13:14.328Z,13.80
2018-12-10T15:15:43.183Z,13.67
2018-12-10T15:18:12.288Z,13.97
2018-12-10T15:20:41.037Z,13.60
2018-12-10T15:23:09.786Z,13.40
2018-12-10T15:25:38.546Z,13.80
2018-12-10T15:28:07.389Z,11.73
2018-12-10T15:30:36.302Z,13.77
2018-12-10T15:33:05.047Z,14.13
2018-12-10T15:35:33.860Z,13.43
2018-12-10T15:38:02.620Z,15.40
2018-12-10T15:40:31.349Z,14.13
2018-12-10T15:43:00.087Z,14.17
2018-12-10T15:45:28.904Z,14.87
2018-12-10T15:47:57.608Z,13.37
2018-12-10T15:50:26.311Z,13.23
2018-12-10T15:52:55.103Z,13.90
2018-12-10T15:55:23.855Z,14.90
2018-12-10T15:57:52.841Z,14.87
2018-12-10T16:00:21.649Z,14.23
2018-12-10T16:02:50.918Z,14.97
2018-12-10T16:05:19.694Z,19.60
2018-12-10T16:07:48.442Z,17.10
2018-12-10T16:10:17.131Z,15.13
2018-12-10T16:12:45.876Z,18.10
2018-12-10T16:15:14.604Z,18.60
2018-12-10T16:17:43.364Z,17.30
2018-12-10T16:20:12.168Z,17.83
2018-12-10T16:22:40.917Z,18.57
2018-12-10T16:25:09.714Z,18.23
2018-12-10T16:27:39.580Z,18.17
2018-12-10T16:30:12.036Z,16.63
2018-12-10T16:32:40.904Z,14.70
2018-12-10T16:35:09.690Z,11.53
2018-12-10T16:37:38.447Z,9.77
2018-12-10T16:40:07.969Z,10.50
2018-12-10T16:42:36.671Z,10.77
2018-12-10T16:45:07.265Z,11.90
2018-12-10T16:47:36.039Z,12.23
2018-12-10T16:50:06.181Z,12.57
2018-12-10T16:52:34.971Z,13.47
2018-12-10T16:55:04.254Z,12.77
2018-12-10T16:57:33.047Z,11.23
2018-12-10T17:00:01.806Z,12.00
2018-12-10T17:02:30.580Z,12.47
2018-12-10T17:05:01.297Z,12.00
2018-12-10T17:07:30.029Z,11.80
2018-12-10T17:09:58.785Z,11.03
2018-12-10T17:12:27.527Z,10.50
2018-12-10T17:14:56.781Z,10.03
2018-12-10T17:17:25.575Z,9.40
2018-12-10T17:19:54.298Z,8.70
2018-12-10T17:22:24.801Z,8.80
2018-12-10T17:24:53.604Z,8.20
2018-12-10T17:27:22.475Z,8.17
2018-12-10T17:29:51.230Z,7.20
2018-12-10T17:32:20.016Z,7.10
2018-12-10T17:34:48.787Z,7.37
2018-12-10T17:37:17.550Z,7.67
2018-12-10T17:39:46.317Z,8.33
2018-12-10T17:42:15.087Z,8.57
2018-12-10T17:44:43.844Z,8.40
2018-12-10T17:47:12.645Z,9.43
2018-12-10T17:49:41.461Z,9.47
2018-12-10T17:52:10.178Z,8.93
2018-12-10T17:54:38.913Z,8.57
2018-12-10T17:57:07.589Z,8.40
2018-12-10T17:59:36.337Z,8.10
2018-12-10T18:02:05.098Z,9.17
2018-12-10T18:04:33.823Z,9.50
2018-12-10T18:07:03.306Z,10.10
2018-12-10T18:09:32.102Z,9.67
2018-12-10T18:12:03.618Z,9.37
2018-12-10T18:14:32.436Z,9.17
2018-12-10T18:17:01.404Z,10.13
2018-12-10T18:19:30.165Z,9.43
2018-12-10T18:21:58.950Z,9.07
2018-12-10T18:24:27.738Z,9.70
2018-12-10T18:26:56.491Z,9.90
2018-12-10T18:29:25.230Z,9.90
2018-12-10T18:31:53.995Z,9.60
2018-12-10T18:34:22.888Z,9.77
2018-12-10T18:36:51.675Z,9.20
2018-12-10T18:39:20.491Z,9.30
2018-12-10T18:41:49.364Z,8.83
2018-12-10T18:44:18.092Z,8.90
2018-12-10T18:46:46.844Z,8.03
2018-12-10T18:49:16.770Z,9.03
2018-12-10T18:51:45.481Z,8.97
2018-12-10T18:54:14.695Z,8.17
2018-12-10T18:56:43.563Z,8.10
2018-12-10T18:59:12.309Z,8.63
2018-12-10T19:01:41.004Z,8.70
2018-12-10T19:04:09.715Z,8.53
2018-12-10T19:06:38.557Z,9.20
2018-12-10T19:09:09.221Z,8.60
2018-12-10T19:11:38.386Z,9.43
2018-12-10T19:14:07.229Z,10.23
2018-12-10T19:16:35.999Z,11.17
2018-12-10T19:19:04.838Z,10.37
2018-12-10T19:21:33.640Z,10.10
2018-12-10T19:24:02.871Z,10.30
2018-12-10T19:26:31.603Z,8.97
2018-12-10T19:29:01.124Z,8.97
2018-12-10T19:31:29.917Z,8.23
2018-12-10T19:34:03.587Z,8.40
2018-12-10T19:36:29.646Z,8.73
2018-12-10T19:38:59.045Z,7.70
2018-12-10T19:41:27.802Z,7.93
2018-12-10T19:43:56.585Z,8.10
2018-12-10T19:46:25.454Z,8.83
2018-12-10T19:48:54.445Z,8.80
2018-12-10T19:51:23.305Z,8.67
2018-12-10T19:53:52.130Z,7.90
2018-12-10T19:56:20.967Z,8.00
2018-12-10T19:58:50.071Z,7.27
2018-12-10T20:01:18.782Z,7.87
2018-12-10T20:03:47.534Z,7.60
2018-12-10T20:06:20.882Z,7.20
2018-12-10T20:08:49.885Z,7.30
2018-12-10T20:11:18.700Z,7.27
2018-12-10T20:13:47.466Z,6.10
2018-12-10T20:16:16.218Z,5.80
2018-12-10T20:18:45.030Z,5.03
2018-12-10T20:21:13.772Z,5.10
2018-12-10T20:23:42.528Z,4.83
2018-12-10T20:26:11.314Z,5.37
2018-12-10T20:28:40.115Z,4.90
2018-12-10T20:31:09.086Z,5.17
2018-12-10T20:33:37.818Z,5.90
2018-12-10T20:36:06.594Z,5.73
2018-12-10T20:38:35.585Z,5.43
2018-12-10T20:41:04.916Z,4.90
2018-12-10T20:43:33.658Z,5.40
2018-12-10T20:46:02.540Z,5.50
2018-12-10T20:48:31.229Z,4.93
2018-12-10T20:51:00.813Z,4.23
2018-12-10T20:53:29.577Z,4.20
2018-12-10T20:55:58.313Z,4.23
2018-12-10T20:58:27.118Z,4.00
2018-12-10T21:00:55.924Z,4.37
2018-12-10T21:03:24.676Z,4.20
2018-12-10T21:05:58.609Z,4.23
2018-12-10T21:08:27.325Z,4.50
2018-12-10T21:10:56.240Z,4.30
2018-12-10T21:13:25.008Z,3.87
2018-12-10T21:15:53.789Z,3.83
2018-12-10T21:18:22.532Z,3.40
2018-12-10T21:20:51.298Z,3.30
2018-12-10T21:23:20.130Z,3.53
2018-12-10T21:25:48.883Z,2.93
2018-12-10T21:28:17.632Z,3.50
2018-12-10T21:30:46.398Z,2.67
2018-12-10T21:33:15.151Z,3.30
2018-12-10T21:35:44.125Z,3.10
2018-12-10T21:38:13.023Z,3.17
2018-12-10T21:40:41.753Z,3.40
2018-12-10T21:43:10.558Z,3.13
2018-12-10T21:45:39.305Z,2.93
2018-12-10T21:48:08.126Z,3.03
2018-12-10T21:50:37.450Z,3.13
2018-12-10T21:53:06.661Z,2.90
2018-12-10T21:55:35.449Z,3.10
2018-12-10T21:58:05.095Z,3.23
2018-12-10T22:00:33.902Z,3.57
2018-12-10T22:03:02.651Z,3.50
2018-12-10T22:05:31.378Z,3.70
2018-12-10T22:08:00.147Z,3.53
2018-12-10T22:10:28.913Z,3.30
2018-12-10T22:12:57.625Z,3.37
2018-12-10T22:15:26.379Z,3.70
2018-12-10T22:17:55.108Z,3.27
2018-12-10T22:20:23.839Z,4.03
2018-12-10T22:22:52.592Z,3.80
2018-12-10T22:25:21.389Z,3.47
2018-12-10T22:27:50.113Z,3.23
2018-12-10T22:30:18.970Z,3.00
2018-12-10T22:32:47.652Z,3.13
2018-12-10T22:35:16.345Z,2.93
2018-12-10T22:37:45.130Z,2.80
2018-12-10T22:40:13.884Z,3.23
2018-12-10T22:42:42.586Z,3.00
2018-12-10T22:45:11.332Z,3.20
2018-12-10T22:47:40.132Z,3.00
2018-12-10T22:50:09.308Z,3.00
2018-12-10T22:52:38.202Z,2.87
2018-12-10T22:55:07.027Z,2.90
2018-12-10T22:57:35.779Z,2.93
2018-12-10T23:00:11.000Z,2.93
2018-12-10T23:02:39.698Z,3.07
2018-12-10T23:05:08.878Z,3.23
2018-12-10T23:07:37.626Z,2.50
2018-12-10T23:10:07.284Z,2.90
2018-12-10T23:12:36.244Z,2.80
2018-12-10T23:15:05.743Z,2.90
2018-12-10T23:17:34.482Z,2.57
2018-12-10T23:20:03.250Z,3.00
2018-12-10T23:22:31.946Z,2.80
2018-12-10T23:25:00.669Z,2.87
2018-12-10T23:27:29.864Z,2.67
2018-12-10T23:29:58.623Z,2.73
2018-12-10T23:32:27.365Z,2.57
2018-12-10T23:34:56.063Z,2.70
2018-12-10T23:37:24.765Z,3.10
2018-12-10T23:39:53.434Z,2.70
2018-12-10T23:42:22.176Z,2.60
2018-12-10T23:44:54.867Z,2.60
2018-12-10T23:47:23.606Z,2.80
2018-12-10T23:49:52.322Z,2.50
2018-12-10T23:52:21.118Z,2.83
2018-12-10T23:54:49.819Z,2.90
2018-12-10T23:57:18.477Z,3.00
2018-12-10T23:59:48.052Z,3.20
